Flight Track Log - Related Links

Times and Time Zones

All times are in EDT time to prevent confusion due to time zone crossing. See the AVA43 flight status page for this flight to view local times or setup timezone preferences in your user account.

Time Position Orientation Groundspeed Altitude Reporting Facility
EDT Latitude Longitude Course Direction KTS MPH feet Rate Location/Type
Sat 09:27:50 AM 40.6167 -73.8833 223° Southwest 220 253 2,400  Level New York TRACON
Sat 09:29:38 AM 40.5417 -73.7942 138° Southeast 214 246 5,100 1,669 Climbing New York Center
Sat 09:30:39 AM 40.5236 -73.6897 103° East 271 312 7,100 2,115 Climbing New York Center
Sat 09:31:40 AM 40.4606 -73.6214 140° Southeast 279 321 9,400 2,034 Climbing New York Center
Sat 09:32:37 AM 40.3875 -73.5450 141° Southeast 316 364 11,100 1,513 Climbing New York Center
Sat 09:33:00 AM 40.0362 -73.3066 223° Southwest  Level FlightAware Approximate
Sat 09:33:39 AM 40.3058 -73.4653 143° Southeast 354 407 12,400  Level New York Center
Sat 09:34:39 AM 40.2142 -73.3750 143° Southeast 392 451 14,600 1,950 Climbing New York Center
Sat 09:35:39 AM 40.1178 -73.3006 149° Southeast 400 460 16,300 1,602 Climbing New York Center
Sat 09:37:50 AM 39.9111 -73.4600 211° Southwest 360 414 19,700 1,571 Climbing Washington Center
Sat 09:38:50 AM 39.8275 -73.5597 223° Southwest 388 447 21,300 1,271 Climbing Washington Center
Sat 09:39:48 AM 39.7333 -73.6622 220° Southwest 417 480 22,200 1,160 Climbing Washington Center
Sat 09:40:49 AM 39.6392 -73.7672 221° Southwest 436 502 23,600 1,279 Climbing Washington Center
Sat 09:41:50 AM 39.5450 -73.8747 221° Southwest 455 524 24,800 1,160 Climbing Washington Center
Sat 09:42:48 AM 39.4464 -73.9792 219° Southwest 455 524 25,900 1,068 Climbing Washington Center
Sat 09:43:48 AM 39.3456 -74.0886 220° Southwest 467 537 26,900 1,082 Climbing Washington Center
Sat 09:44:50 AM 39.2447 -74.1981 220° Southwest 473 544 28,100 885 Climbing Washington Center
Sat 09:45:50 AM 39.1439 -74.3069 220° Southwest 468 539 28,700 610 Climbing Washington Center
Sat 09:46:48 AM 39.0408 -74.4211 221° Southwest 485 558 29,300 756 Climbing Washington Center
Sat 09:47:49 AM 38.9336 -74.5350 220° Southwest 493 567 30,200 1,082 Climbing Washington Center
Sat 09:48:50 AM 38.8283 -74.6511 221° Southwest 500 575 31,500 1,059 Climbing Washington Center
Sat 09:49:48 AM 38.7247 -74.7614 220° Southwest 495 570 32,300 857 Climbing Washington Center
Sat 09:50:49 AM 38.6214 -74.8689 219° Southwest 495 570 33,200 738 Climbing Washington Center
Sat 09:51:50 AM 38.5178 -74.9814 220° Southwest 495 570 33,800 655 Climbing Washington Center
Sat 09:52:48 AM 38.4078 -75.0856 217° Southwest 495 570 34,500 559 Climbing Washington Center
Sat 09:53:48 AM 38.2850 -75.1711 209° Southwest 495 570 34,900 347 Climbing Washington Center
Sat 09:54:49 AM 38.1581 -75.2536 207° Southwest 500 575 35,200 492 Climbing Washington Center
Sat 09:55:50 AM 38.0331 -75.3333 207° Southwest 505 581 35,900 403 Climbing Washington Center
Sat 09:56:48 AM 37.9081 -75.4156 207° Southwest 511 588 36,000  Climbing Washington Center
Sat 09:57:49 AM 37.7789 -75.4944 206° Southwest 511 588 35,900  Descending Washington Center
Sat 09:58:49 AM 37.6517 -75.5761 207° Southwest 511 588 36,000 50 Climbing Washington Center
Sat 09:59:50 AM 37.5267 -75.6600 208° Southwest 511 588 36,000  Level Washington Center
Sat 10:00:48 AM 37.3972 -75.7383 206° Southwest 511 588 36,000 -51 Level Washington Center
Sat 10:01:48 AM 37.2697 -75.8189 207° Southwest 511 588 35,900 -50 Descending Washington Center
Sat 10:02:49 AM 37.1403 -75.8992 206° Southwest 511 588 35,900 49 Level Washington Center
Sat 10:03:50 AM 37.0169 -75.9794 207° Southwest 511 588 36,000 50 Climbing Washington Center
Sat 10:04:50 AM 36.8875 -76.0231 195° South 524 603 36,000  Level Washington Center
Sat 10:05:48 AM 36.7433 -76.0636 193° South 529 609 36,000  Level Washington Center
Sat 10:06:49 AM 36.5992 -76.1067 193° South 534 615 36,000  Level Washington Center
Sat 10:07:50 AM 36.4594 -76.1447 192° South 529 609 36,000  Level Washington Center
Sat 10:08:48 AM 36.3172 -76.1875 194° South 524 603 36,000 -50 Level Washington Center
Sat 10:09:49 AM 36.1753 -76.2250 192° South 524 603 35,900 -50 Descending Washington Center
Sat 10:10:49 AM 36.0331 -76.2625 192° South 530 610 35,900  Level Washington Center
Sat 10:11:50 AM 35.8911 -76.3047 194° South 525 604 35,900 50 Level Washington Center
Sat 10:12:48 AM 35.7511 -76.3419 192° South 525 604 36,000 50 Climbing Washington Center
Sat 10:13:49 AM 35.6108 -76.3842 194° South 525 604 36,000 -49 Level Washington Center
Sat 10:14:50 AM 35.4689 -76.4183 191° South 525 604 35,900  Descending Washington Center
Sat 10:15:48 AM 35.3267 -76.4628 194° South 525 604 36,000 51 Climbing Washington Center
Sat 10:16:48 AM 35.1739 -76.5069 193° South 525 604 36,000 -50 Level Washington Center
Sat 10:17:49 AM 35.0444 -76.5433 193° South 525 604 35,900  Descending Washington Center
Sat 10:18:50 AM 34.9000 -76.5822 192° South 525 604 36,000 50 Climbing Washington Center
Sat 10:19:48 AM 34.7558 -76.6183 192° South 530 610 36,000  Level Washington Center
Sat 10:20:48 AM 34.6094 -76.6594 193° South 530 610 36,000 -50 Level Washington Center
Sat 10:21:49 AM 34.4714 -76.7006 194° South 525 604 35,900 -50 Descending Washington Center
Sat 10:22:48 AM 34.3228 -76.7389 192° South 530 610 35,900  Level Washington Center
Sat 10:23:48 AM 34.1786 -76.7744 192° South 530 610 35,900 50 Level Washington Center
Sat 10:24:48 AM 34.0342 -76.8150 193° South 530 610 36,000 50 Climbing Washington Center
Sat 10:25:49 AM 33.8878 -76.8553 193° South 530 610 36,000  Level Washington Center
Sat 10:27:59 AM 33.5728 -76.9378 192° South 530 610 36,000 -32 Level Jacksonville Center
Sat 10:28:59 AM 33.4283 -76.9747 192° South 535 616 35,900  Descending Jacksonville Center
Sat 10:29:59 AM 33.2700 -77.0200 193° South 535 616 36,000 50 Climbing Jacksonville Center
Sat 10:30:59 AM 33.1275 -77.0544 191° South 535 616 36,000  Level Jacksonville Center
Sat 10:31:59 AM 32.9811 -77.0911 192° South 535 616 36,000  Level Jacksonville Center
Sat 10:32:59 AM 32.8367 -77.1300 193° South 541 623 36,000  Level Jacksonville Center
Sat 10:33:59 AM 32.6922 -77.1664 192° South 541 623 36,000 -50 Level Jacksonville Center
Sat 10:34:59 AM 32.5478 -77.2025 192° South 541 623 35,900 -50 Descending Jacksonville Center
Sat 10:35:59 AM 32.4036 -77.2411 193° South 541 623 35,900  Level Jacksonville Center
Sat 10:36:59 AM 32.2633 -77.2769 192° South 536 617 35,900 50 Level Jacksonville Center
Sat 10:37:59 AM 32.1208 -77.3150 193° South 536 617 36,000 50 Climbing Jacksonville Center
Sat 10:38:59 AM 31.9744 -77.3508 192° South 531 611 36,000  Level Jacksonville Center
Sat 10:39:59 AM 31.8300 -77.3889 193° South 537 618 36,000 -50 Level Jacksonville Center
Sat 10:40:59 AM 31.6875 -77.4267 193° South 537 618 35,900  Descending Jacksonville Center
Sat 10:41:59 AM 31.5450 -77.4619 192° South 537 618 36,000 50 Climbing Jacksonville Center
Sat 10:42:59 AM 31.4006 -77.4994 192° South 537 618 36,000 -50 Level Jacksonville Center
Sat 10:43:59 AM 31.2619 -77.5294 190° South 527 606 35,900 -50 Descending Jacksonville Center
Sat 10:44:59 AM 31.1192 -77.5617 191° South 522 601 35,900  Level Jacksonville Center
Sat 10:45:59 AM 30.9789 -77.5986 193° South 522 601 35,900 50 Level Jacksonville Center
Sat 10:46:59 AM 30.8364 -77.6358 193° South 522 601 36,000  Climbing Jacksonville Center
Sat 10:48:30 AM 30.6344 -77.6969 195° South 500 575 35,900  Descending Miami Center
Sat 10:49:30 AM 30.4778 -77.7317 191° South 520 598 36,000 50 Climbing Miami Center
Sat 10:50:30 AM 30.3400 -77.7497 186° South 526 605 36,000  Level Miami Center
Sat 10:51:30 AM 30.1964 -77.7486 180° South 521 600 36,000  Level Miami Center
Sat 10:52:30 AM 30.0589 -77.7403 177° South 516 594 36,000  Level Miami Center
Sat 10:53:30 AM 29.9128 -77.7294 176° South 509 586 36,000 -50 Level Miami Center
Sat 10:54:30 AM 29.7794 -77.7236 178° South 507 583 35,900  Descending Miami Center
Sat 10:55:30 AM 29.6378 -77.7156 177° South 502 578 36,000 50 Climbing Miami Center
Sat 10:56:30 AM 29.5064 -77.7097 178° South 501 577 36,000  Level Miami Center
Sat 10:57:30 AM 29.3708 -77.7014 177° South 485 558 36,000  Level Miami Center
Sat 10:58:30 AM 29.2372 -77.6933 177° South 485 558 36,000 -50 Level Miami Center
Sat 10:59:30 AM 29.1039 -77.6853 177° South 485 558 35,900 -50 Descending Miami Center
Sat 11:00:30 AM 28.9642 -77.6794 178° South 485 558 35,900 50 Level Miami Center
Sat 11:01:30 AM 28.8325 -77.6736 178° South 490 564 36,000 50 Climbing Miami Center
Sat 11:02:30 AM 28.7033 -77.6633 176° South 482 555 36,000  Level Miami Center
Sat 11:03:30 AM 28.5656 -77.6575 178° South 477 549 36,000  Level Miami Center
Sat 11:04:30 AM 28.4361 -77.6494 177° South 483 556 36,000 -50 Level Miami Center
Sat 11:05:30 AM 28.3025 -77.6439 178° South 484 557 35,900 -50 Descending Miami Center
Sat 11:06:30 AM 28.1689 -77.6358 177° South 474 545 35,900 50 Level Miami Center
Sat 11:07:30 AM 28.0397 -77.6303 178° South 485 558 36,000 50 Climbing Miami Center
Sat 11:08:30 AM 27.9061 -77.6247 178° South 473 544 36,000  Level Miami Center
Sat 11:09:30 AM 27.7744 -77.6169 177° South 473 544 36,000 -50 Level Miami Center
Sat 11:10:30 AM 27.6450 -77.6089 177° South 473 544 35,900  Descending Miami Center
Sat 11:11:30 AM 27.5281 -77.6128 182° South 473 544 36,000 50 Climbing Miami Center
Sat 11:12:30 AM 27.4008 -77.6050 177° South 473 544 36,000  Level Miami Center
Sat 11:13:30 AM 27.2714 -77.5831 171° South 473 544 36,000  Level Miami Center
Sat 11:14:30 AM 27.1356 -77.5822 180° South 473 544 36,000 50 Level Miami Center
Sat 11:15:30 AM 27.0083 -77.5700 175° South 478 550 36,100  Climbing Miami Center
Sat 11:16:30 AM 26.8808 -77.5622 177° South 473 544 36,000  Descending Miami Center
Sat 11:17:30 AM 26.7556 -77.5592 179° South 468 539 36,100 350 Climbing Miami Center
Sat 11:18:30 AM 26.6239 -77.5489 176° South 462 532 36,700 450 Climbing Miami Center
Sat 11:19:30 AM 26.4986 -77.5389 176° South 462 532 37,000 150 Climbing Miami Center
Sat 11:20:30 AM 26.3692 -77.5314 177° South 462 532 37,000  Level Miami Center
Sat 11:21:30 AM 26.2397 -77.5236 177° South 462 532 37,000  Level Miami Center
Sat 11:22:30 AM 26.1081 -77.5136 176° South 467 537 37,000  Level Miami Center
Sat 11:23:30 AM 25.9786 -77.5061 177° South 467 537 37,000  Level Miami Center
Sat 11:24:30 AM 25.8511 -77.4983 177° South 467 537 37,000  Level Miami Center
Sat 11:25:30 AM 25.7214 -77.4908 177° South 467 537 37,000  Level Miami Center
Sat 11:26:30 AM 25.5919 -77.4808 176° South 467 537 37,000  Level Miami Center
Sat 11:27:30 AM 25.4458 -77.4733 177° South 467 537 37,000  Level Miami Center
Sat 11:28:30 AM 25.3183 -77.4633 176° South 467 537 37,000  Level Miami Center
Sat 11:29:30 AM 25.1908 -77.4558 177° South 462 532 37,000  Level Miami Center
Sat 11:30:30 AM 25.0675 -77.4508 178° South 467 537 37,000  Level Miami Center
Sat 11:31:30 AM 24.9172 -77.4386 176° South 492 566 37,000  Level Miami Center
Sat 11:32:30 AM 24.7856 -77.4333 178° South 497 572 37,000  Level Miami Center
Sat 11:33:30 AM 24.6561 -77.4258 177° South 481 554 37,000  Level Miami Center
Sat 11:34:30 AM 24.5286 -77.4161 176° South 471 542 37,000  Level Miami Center
Sat 11:35:30 AM 24.3989 -77.4089 177° South 471 542 37,000  Level Miami Center
Sat 11:36:30 AM 24.2694 -77.4014 177° South 466 536 37,000  Level Miami Center
Sat 11:37:30 AM 24.1400 -77.3917 176° South 466 536 37,000  Level Miami Center
Sat 11:38:30 AM 24.0125 -77.3867 178° South 466 536 37,000  Level Miami Center
Sat 11:39:30 AM 23.8850 -77.3817 178° South 461 531 37,000  Level Miami Center
Sat 11:40:30 AM 23.7597 -77.3697 175° South 456 525 37,000  Level Miami Center
Sat 11:41:30 AM 23.6342 -77.3669 179° South 456 525 37,000  Level Miami Center
Sat 11:43:00 AM 23.4460 -77.3444 176° South  Level FlightAware Approximate
Sat 11:50:00 AM 22.5658 -77.2746 176° South  Level FlightAware Approximate
Sat 11:51:00 AM 22.4400 -77.2647 176° South  Level FlightAware Approximate
Sat 11:52:00 AM 22.3143 -77.2548 176° South  Level FlightAware Approximate
Sat 11:53:00 AM 22.1885 -77.2449 176° South  Level FlightAware Approximate
Sat 11:54:00 AM 22.0628 -77.2351 176° South  Level FlightAware Approximate
Sat 11:55:00 AM 21.9370 -77.2253 176° South  Level FlightAware Approximate
Sat 11:56:00 AM 21.8113 -77.2154 176° South  Level FlightAware Approximate
Sat 11:57:00 AM 21.6855 -77.2057 176° South  Level FlightAware Approximate
Sat 11:58:00 AM 21.5598 -77.1959 176° South  Level FlightAware Approximate
Sat 11:59:00 AM 21.4340 -77.1861 176° South  Level FlightAware Approximate
Sat 12:00:00 PM 21.3083 -77.1764 176° South  Level FlightAware Approximate
Sat 12:01:00 PM 21.1825 -77.1667 176° South  Level FlightAware Approximate
Sat 12:02:00 PM 21.0568 -77.1570 176° South  Level FlightAware Approximate
Sat 12:03:00 PM 20.9310 -77.1473 176° South  Level FlightAware Approximate
Sat 12:04:00 PM 20.8053 -77.1376 176° South  Level FlightAware Approximate
Sat 12:05:00 PM 20.6795 -77.1281 176° South  Level FlightAware Approximate
Sat 12:06:00 PM 20.5537 -77.1188 176° South  Level FlightAware Approximate
Sat 12:07:00 PM 20.4280 -77.1095 176° South  Level FlightAware Approximate
Sat 12:08:00 PM 20.3022 -77.1002 176° South  Level FlightAware Approximate
Sat 12:09:00 PM 20.1773 -77.0818 172° South  Level FlightAware Approximate
Sat 12:10:00 PM 20.0524 -77.0633 172° South  Level FlightAware Approximate
Sat 12:11:00 PM 19.9275 -77.0448 172° South  Level FlightAware Approximate
Sat 12:12:00 PM 19.8027 -77.0264 172° South  Level FlightAware Approximate
Sat 12:13:00 PM 19.6778 -77.0080 172° South  Level FlightAware Approximate
Sat 12:14:00 PM 19.5529 -76.9896 172° South  Level FlightAware Approximate
Sat 12:15:00 PM 19.4280 -76.9712 172° South  Level FlightAware Approximate
Sat 12:16:00 PM 19.3031 -76.9529 172° South  Level FlightAware Approximate
Sat 12:17:00 PM 19.1781 -76.9358 173° South  Level FlightAware Approximate
Sat 12:18:00 PM 19.0530 -76.9189 173° South  Level FlightAware Approximate
Sat 12:19:00 PM 18.9280 -76.9020 173° South  Level FlightAware Approximate
Sat 12:20:00 PM 18.8029 -76.8852 173° South  Level FlightAware Approximate
Sat 12:21:00 PM 18.6778 -76.8684 173° South  Level FlightAware Approximate
Sat 12:22:00 PM 18.5527 -76.8516 173° South  Level FlightAware Approximate
Sat 12:23:00 PM 18.4277 -76.8349 173° South  Level FlightAware Approximate
Sat 12:24:00 PM 18.3026 -76.8181 173° South  Level FlightAware Approximate
Sat 12:25:00 PM 18.1775 -76.8014 173° South  Level FlightAware Approximate
Sat 12:26:00 PM 18.0525 -76.7848 173° South  Level FlightAware Approximate
Sat 12:27:00 PM 17.9274 -76.7681 173° South  Level FlightAware Approximate
Sat 12:28:00 PM 17.8052 -76.7356 165° South  Level FlightAware Approximate
Sat 12:29:00 PM 17.6834 -76.7017 165° South  Level FlightAware Approximate
Sat 12:30:00 PM 17.5615 -76.6679 165° South  Level FlightAware Approximate
Sat 12:31:00 PM 17.4396 -76.6341 165° South  Level FlightAware Approximate
Sat 12:32:00 PM 17.3177 -76.6003 165° South  Level FlightAware Approximate
Sat 12:33:00 PM 17.1958 -76.5666 165° South  Level FlightAware Approximate
Sat 12:34:00 PM 17.0739 -76.5329 165° South  Level FlightAware Approximate
Sat 12:35:00 PM 16.9520 -76.4993 165° South  Level FlightAware Approximate
Sat 12:36:00 PM 16.8301 -76.4657 165° South  Level FlightAware Approximate
Sat 12:37:00 PM 16.7082 -76.4322 165° South  Level FlightAware Approximate
Sat 12:38:00 PM 16.5863 -76.3987 165° South  Level FlightAware Approximate
Sat 12:39:00 PM 16.4643 -76.3652 165° South  Level FlightAware Approximate
Sat 12:40:00 PM 16.3424 -76.3318 165° South  Level FlightAware Approximate
Sat 12:41:00 PM 16.2204 -76.2984 165° South  Level FlightAware Approximate
Sat 12:42:00 PM 16.0985 -76.2651 165° South  Level FlightAware Approximate
Sat 12:43:00 PM 15.9766 -76.2318 165° South  Level FlightAware Approximate
Sat 12:44:00 PM 15.8546 -76.1985 165° South  Level FlightAware Approximate
Sat 12:45:00 PM 15.7326 -76.1653 165° South  Level FlightAware Approximate
Sat 12:46:00 PM 15.6107 -76.1322 165° South  Level FlightAware Approximate
Sat 12:47:00 PM 15.4887 -76.0990 165° South  Level FlightAware Approximate
Sat 12:48:00 PM 15.3667 -76.0659 165° South  Level FlightAware Approximate
Sat 12:49:00 PM 15.2447 -76.0329 165° South  Level FlightAware Approximate
Sat 12:50:00 PM 15.1228 -75.9998 165° South  Level FlightAware Approximate
Sat 12:51:00 PM 15.0008 -75.9669 165° South  Level FlightAware Approximate
Sat 12:52:00 PM 14.8789 -75.9333 165° South  Level FlightAware Approximate
Sat 12:53:00 PM 14.7571 -75.8998 165° South  Level FlightAware Approximate
Sat 12:54:00 PM 14.6352 -75.8663 165° South  Level FlightAware Approximate
Sat 12:55:00 PM 14.5134 -75.8329 165° South  Level FlightAware Approximate
Sat 12:56:00 PM 14.3915 -75.7995 165° South  Level FlightAware Approximate
Sat 12:57:00 PM 14.2697 -75.7661 165° South  Level FlightAware Approximate
Sat 12:58:00 PM 14.1478 -75.7328 165° South  Level FlightAware Approximate
Sat 12:59:00 PM 14.0259 -75.6995 165° South  Level FlightAware Approximate
Sat 01:00:00 PM 13.9038 -75.6671 166° South  Level FlightAware Approximate
Sat 01:01:00 PM 13.7816 -75.6354 166° South  Level FlightAware Approximate
Sat 01:02:00 PM 13.6593 -75.6038 166° South  Level FlightAware Approximate
Sat 01:03:00 PM 13.5370 -75.5722 166° South  Level FlightAware Approximate
Sat 01:04:00 PM 13.4147 -75.5406 166° South  Level FlightAware Approximate
Sat 01:05:00 PM 13.2924 -75.5091 166° South  Level FlightAware Approximate
Sat 01:06:00 PM 13.1701 -75.4776 166° South  Level FlightAware Approximate
Sat 01:07:00 PM 13.0478 -75.4461 166° South  Level FlightAware Approximate
Sat 01:08:00 PM 12.9256 -75.4145 165° South  Level FlightAware Approximate
Sat 01:09:00 PM 12.8039 -75.3807 165° South  Level FlightAware Approximate
Sat 01:10:00 PM 12.6822 -75.3468 165° South  Level FlightAware Approximate
Sat 01:11:00 PM 12.5605 -75.3130 165° South  Level FlightAware Approximate
Sat 01:12:00 PM 12.4388 -75.2793 165° South  Level FlightAware Approximate
Sat 01:13:00 PM 12.3171 -75.2458 166° South  Level FlightAware Approximate
Sat 01:14:00 PM 12.1949 -75.2141 166° South  Level FlightAware Approximate
Sat 01:15:00 PM 12.0726 -75.1824 166° South  Level FlightAware Approximate
Sat 01:16:00 PM 11.9504 -75.1507 166° South  Level FlightAware Approximate
Sat 01:17:00 PM 11.8282 -75.1191 166° South  Level FlightAware Approximate
Sat 01:18:00 PM 11.7060 -75.0875 166° South  Level FlightAware Approximate
Sat 01:19:00 PM 11.5837 -75.0560 166° South  Level FlightAware Approximate
Sat 01:20:00 PM 11.4615 -75.0245 166° South  Level FlightAware Approximate
Sat 01:21:00 PM 11.3393 -74.9929 166° South  Level FlightAware Approximate
Sat 01:22:00 PM 11.2170 -74.9615 166° South  Level FlightAware Approximate
Sat 01:23:00 PM 11.0948 -74.9300 166° South  Level FlightAware Approximate
Sat 01:24:00 PM 10.9725 -74.8986 166° South  Level FlightAware Approximate
Sat 01:25:00 PM 10.8503 -74.8672 166° South  Level FlightAware Approximate
Sat 01:26:00 PM 10.7263 -74.8494 179° South  Level FlightAware Approximate
Sat 01:27:00 PM 10.6002 -74.8480 179° South  Level FlightAware Approximate
Sat 01:28:00 PM 10.4742 -74.8465 179° South  Level FlightAware Approximate
Sat 01:29:00 PM 10.3481 -74.8452 179° South  Level FlightAware Approximate
Sat 01:30:00 PM 10.2220 -74.8438 179° South  Level FlightAware Approximate
Sat 01:31:00 PM 10.0960 -74.8423 179° South  Level FlightAware Approximate
Sat 01:32:00 PM 9.9699 -74.8410 179° South  Level FlightAware Approximate
Sat 01:33:00 PM 9.8438 -74.8395 179° South  Level FlightAware Approximate
Sat 01:34:00 PM 9.7177 -74.8382 179° South  Level FlightAware Approximate
Sat 01:35:00 PM 9.5917 -74.8367 179° South  Level FlightAware Approximate
Sat 01:36:00 PM 9.4656 -74.8354 179° South  Level FlightAware Approximate
Sat 01:37:00 PM 9.3395 -74.8339 179° South  Level FlightAware Approximate
Sat 01:38:00 PM 9.2143 -74.8443 189° South  Level FlightAware Approximate
Sat 01:39:00 PM 9.0897 -74.8639 189° South  Level FlightAware Approximate
Sat 01:40:00 PM 8.9652 -74.8836 189° South  Level FlightAware Approximate
Sat 01:41:00 PM 8.8406 -74.9033 189° South  Level FlightAware Approximate
Sat 01:42:00 PM 8.7160 -74.9229 189° South  Level FlightAware Approximate
Sat 01:43:00 PM 8.5915 -74.9431 189° South  Level FlightAware Approximate
Sat 01:44:00 PM 8.4671 -74.9638 189° South  Level FlightAware Approximate
Sat 01:45:00 PM 8.3425 -74.9832 189° South  Level FlightAware Approximate
Sat 01:46:00 PM 8.2179 -75.0024 189° South  Level FlightAware Approximate
Sat 01:47:00 PM 8.0932 -75.0216 189° South  Level FlightAware Approximate
Sat 01:48:00 PM 7.9696 -75.0402 206° Southwest  Level FlightAware Approximate
Sat 01:49:00 PM 7.8467 -75.0638 188° South  Level FlightAware Approximate
Sat 01:50:00 PM 7.7217 -75.0804 188° South  Level FlightAware Approximate
Sat 01:51:00 PM 7.5966 -75.0928 190° South  Level FlightAware Approximate
Sat 01:52:00 PM 7.4724 -75.1147 190° South  Level FlightAware Approximate
Sat 01:53:00 PM 7.3482 -75.1360 188° South  Level FlightAware Approximate
Sat 01:54:00 PM 7.2233 -75.1538 188° South  Level FlightAware Approximate
Sat 01:55:00 PM 7.0985 -75.1717 188° South  Level FlightAware Approximate
Sat 01:56:00 PM 6.9743 -75.1928 192° South  Level FlightAware Approximate
Sat 01:57:00 PM 6.8508 -75.2182 186° South  Level FlightAware Approximate
Sat 01:58:00 PM 6.7254 -75.2308 186° South  Level FlightAware Approximate
Sat 01:59:00 PM 6.6006 -75.2486 189° South  Level FlightAware Approximate
Sat 02:00:00 PM 6.4760 -75.2681 191° South  Level FlightAware Approximate
Sat 02:01:00 PM 6.3524 -75.2929 191° South  Level FlightAware Approximate
Sat 02:02:00 PM 6.2272 -75.3015 194° South  Level FlightAware Approximate
Sat 02:03:00 PM 6.1574 -75.3799 259° West  Level FlightAware Approximate
Sat 02:04:00 PM 6.1500 -75.4167 259° West  Level FlightAware Approximate
Sat 02:05:00 PM 6.1645 -75.4231 259° West  Level Estimated
Sat 02:06:00 PM 6.1645 -75.4231 259° West  Level Estimated
Sat 02:07:00 PM 6.1645 -75.4231 259° West  Level Estimated
Sat 02:08:00 PM 6.1645 -75.4231 259° West  Level Estimated
Sat 02:09:00 PM 6.1645 -75.4231 259° West  Level Estimated
Sat 02:10:00 PM 6.1645 -75.4231 259° West  Level Estimated
Sat 02:11:00 PM 6.1645 -75.4231 259° West  Level Estimated
Sat 02:12:00 PM 6.1645 -75.4231 259° West  Level Estimated
Sat 02:13:00 PM 6.1645 -75.4231 259° West  Level Estimated
Sat 02:14:00 PM 6.1645 -75.4231 259° West  Level Estimated
Sat 02:15:00 PM 6.1645 -75.4231 259° West  Level Estimated
Sat 02:16:00 PM 6.1645 -75.4231 259° West  Level Estimated
Sat 02:17:00 PM 6.1645 -75.4231 259° West  Level Estimated
Sat 02:18:00 PM 6.1645 -75.4231 259° West  Level Estimated
Sat 02:19:00 PM 6.1645 -75.4231 259° West  Level Estimated
Sat 02:20:00 PM 6.1645 -75.4231 259° West  Level Estimated
Sat 02:21:00 PM 6.1645 -75.4231 259° West  Level Estimated
Sat 02:22:00 PM 6.1645 -75.4231 259° West  Level Estimated
Sat 02:23:00 PM 6.1645 -75.4231 259° West  Level Estimated
Sat 02:24:00 PM 6.1645 -75.4231 259° West  Level Estimated
Sat 02:25:00 PM 6.1645 -75.4231 259° West  Level Estimated
Sat 02:26:00 PM 6.1645 -75.4231 259° West  Level Estimated
Sat 02:27:00 PM 6.1645 -75.4231 259° West  Level Estimated

Login

Don't have an account? Register now (free) for customized features, flight alerts, and more!